createdAt,value
2022-12-17T00:00:46.767Z,-6.75
2022-12-17T00:03:36.034Z,-6.63
2022-12-17T00:06:24.967Z,-6.41
2022-12-17T00:09:10.669Z,-6.45
2022-12-17T00:11:58.031Z,-6.34
2022-12-17T00:14:44.082Z,-6.84
2022-12-17T00:17:32.404Z,-6.67
2022-12-17T00:20:19.019Z,-6.64
2022-12-17T00:23:06.056Z,-6.62
2022-12-17T00:25:51.766Z,-6.66
2022-12-17T00:28:39.274Z,-6.63
2022-12-17T00:31:25.453Z,-6.77
2022-12-17T00:34:11.052Z,-7.04
2022-12-17T00:36:57.906Z,-7.16
2022-12-17T00:39:59.128Z,-7.19
2022-12-17T00:42:57.942Z,-7.18
2022-12-17T00:48:49.499Z,-7.69
2022-12-17T00:54:37.988Z,-7.67
2022-12-17T00:57:23.443Z,-7.64
2022-12-17T01:00:12.693Z,-7.57
2022-12-17T01:03:00.230Z,-7.58
2022-12-17T01:05:52.462Z,-7.55
2022-12-17T01:08:38.769Z,-7.51
2022-12-17T01:11:25.665Z,-7.42
2022-12-17T01:14:11.148Z,-7.43
2022-12-17T01:16:57.646Z,-7.38
2022-12-17T01:19:44.889Z,-7.20
2022-12-17T01:22:45.134Z,-7.11
2022-12-17T01:25:31.250Z,-7.20
2022-12-17T01:28:17.577Z,-7.25
2022-12-17T01:31:03.218Z,-7.25
2022-12-17T01:33:52.967Z,-7.29
2022-12-17T01:36:40.597Z,-7.41
2022-12-17T01:39:38.546Z,-7.62
2022-12-17T01:42:24.317Z,-7.61
2022-12-17T01:45:14.615Z,-7.54
2022-12-17T01:48:03.467Z,-7.49
2022-12-17T01:50:51.876Z,-7.49
2022-12-17T01:53:56.505Z,-7.64
2022-12-17T01:56:44.502Z,-7.71
2022-12-17T01:59:47.493Z,-7.79
2022-12-17T02:02:33.182Z,-7.96
2022-12-17T02:05:19.079Z,-8.02
2022-12-17T02:08:08.452Z,-7.94
2022-12-17T02:11:05.012Z,-7.97
2022-12-17T02:13:53.039Z,-8.25
2022-12-17T02:16:40.761Z,-8.19
2022-12-17T02:19:41.529Z,-8.12
2022-12-17T02:22:33.511Z,-8.02
2022-12-17T02:25:24.741Z,-7.94
2022-12-17T02:28:24.850Z,-7.91
2022-12-17T02:31:26.310Z,-8.02
2022-12-17T02:34:12.264Z,-8.14
2022-12-17T02:36:57.668Z,-8.34
2022-12-17T02:39:43.235Z,-8.30
2022-12-17T02:42:28.860Z,-8.05
2022-12-17T02:45:16.676Z,-7.95
2022-12-17T02:48:03.373Z,-8.03
2022-12-17T02:50:48.910Z,-8.01
2022-12-17T02:53:35.418Z,-8.21
2022-12-17T02:56:21.252Z,-8.31
2022-12-17T02:59:09.934Z,-8.34
2022-12-17T03:02:00.970Z,-8.34
2022-12-17T03:04:50.166Z,-8.26
2022-12-17T03:08:00.697Z,-8.50
2022-12-17T03:10:46.174Z,-8.69
2022-12-17T03:13:41.031Z,-8.58
2022-12-17T03:16:30.348Z,-8.60
2022-12-17T03:19:21.122Z,-8.47
2022-12-17T03:22:07.009Z,-8.32
2022-12-17T03:24:52.529Z,-8.31
2022-12-17T03:27:39.798Z,-8.25
2022-12-17T03:30:26.427Z,-8.11
2022-12-17T03:33:16.834Z,-8.09
2022-12-17T03:36:03.727Z,-8.00
2022-12-17T03:38:48.875Z,-8.02
2022-12-17T03:41:34.494Z,-8.14
2022-12-17T03:44:20.115Z,-8.03
2022-12-17T03:47:05.304Z,-8.05
2022-12-17T03:49:50.644Z,-8.00
2022-12-17T03:52:37.736Z,-8.02
2022-12-17T03:55:23.828Z,-8.16
2022-12-17T03:58:09.028Z,-8.12
2022-12-17T04:00:54.411Z,-8.14
2022-12-17T04:03:40.332Z,-8.13
2022-12-17T04:06:26.255Z,-8.07
2022-12-17T04:09:13.995Z,-8.11
2022-12-17T04:11:59.645Z,-8.19
2022-12-17T04:14:45.693Z,-8.25
2022-12-17T04:17:31.171Z,-8.14
2022-12-17T04:20:16.403Z,-8.04
2022-12-17T04:23:01.994Z,-8.08
2022-12-17T04:25:49.150Z,-8.09
2022-12-17T04:28:33.706Z,-8.09
2022-12-17T04:31:22.990Z,-7.97
2022-12-17T04:34:08.753Z,-8.00
2022-12-17T04:36:54.415Z,-7.96
2022-12-17T04:39:40.184Z,-8.10
2022-12-17T04:42:27.700Z,-8.16
2022-12-17T04:45:13.097Z,-8.29
2022-12-17T04:47:58.829Z,-8.26
2022-12-17T04:50:44.329Z,-8.26
2022-12-17T04:53:29.908Z,-8.19
2022-12-17T04:56:15.249Z,-8.25
2022-12-17T04:59:02.120Z,-8.18
2022-12-17T05:01:48.056Z,-8.11
2022-12-17T05:04:33.370Z,-8.03
2022-12-17T05:07:18.847Z,-8.13
2022-12-17T05:10:04.667Z,-8.00
2022-12-17T05:12:50.077Z,-8.05
2022-12-17T05:15:37.490Z,-8.09
2022-12-17T05:18:24.243Z,-8.09
2022-12-17T05:21:09.809Z,-8.28
2022-12-17T05:23:57.770Z,-8.20
2022-12-17T05:26:43.962Z,-8.16
2022-12-17T05:29:30.885Z,-8.16
2022-12-17T05:32:18.177Z,-8.15
2022-12-17T05:35:03.778Z,-8.14
2022-12-17T05:37:50.770Z,-8.32
2022-12-17T05:40:36.728Z,-8.40
2022-12-17T05:43:23.238Z,-8.54
2022-12-17T05:46:09.583Z,-8.77
2022-12-17T05:48:57.654Z,-8.85
2022-12-17T05:51:53.314Z,-8.62
2022-12-17T05:54:38.873Z,-8.65
2022-12-17T05:57:24.493Z,-8.60
2022-12-17T06:00:09.779Z,-8.69
2022-12-17T06:02:57.713Z,-8.71
2022-12-17T06:05:44.838Z,-9.18
2022-12-17T06:08:30.171Z,-9.53
2022-12-17T06:11:16.520Z,-9.72
2022-12-17T06:14:02.628Z,-9.74
2022-12-17T06:16:48.055Z,-9.89
2022-12-17T06:19:33.484Z,-9.72
2022-12-17T06:22:23.716Z,-9.58
2022-12-17T06:25:08.885Z,-9.04
2022-12-17T06:27:54.042Z,-8.84
2022-12-17T06:30:39.936Z,-9.00
2022-12-17T06:33:26.414Z,-8.86
2022-12-17T06:36:18.064Z,-8.38
2022-12-17T06:39:08.912Z,-8.57
2022-12-17T06:41:54.775Z,-8.25
2022-12-17T06:44:47.386Z,-7.66
2022-12-17T06:47:32.472Z,-7.44
2022-12-17T06:50:17.924Z,-8.00
2022-12-17T06:53:03.303Z,-7.64
2022-12-17T06:55:56.060Z,-7.30
2022-12-17T06:58:41.954Z,-7.10
2022-12-17T07:01:27.554Z,-6.76
2022-12-17T07:04:13.242Z,-6.42
2022-12-17T07:06:58.889Z,-6.32
2022-12-17T07:09:44.230Z,-6.44
2022-12-17T07:12:31.190Z,-6.42
2022-12-17T07:15:16.603Z,-6.30
2022-12-17T07:18:02.242Z,-6.29
2022-12-17T07:20:47.450Z,-6.22
2022-12-17T07:23:33.019Z,-5.98
2022-12-17T07:26:18.782Z,-5.78
2022-12-17T07:29:09.258Z,-5.69
2022-12-17T07:31:54.548Z,-5.64
2022-12-17T07:34:40.345Z,-5.71
2022-12-17T07:37:25.723Z,-5.68
2022-12-17T07:40:10.902Z,-5.61
2022-12-17T07:42:57.834Z,-5.91
2022-12-17T07:45:45.023Z,-6.10
2022-12-17T07:48:30.412Z,-6.42
2022-12-17T07:51:16.073Z,-6.51
2022-12-17T07:53:58.103Z,-6.44
2022-12-17T07:56:43.314Z,-6.34
2022-12-17T07:59:28.777Z,-6.31
2022-12-17T08:02:16.446Z,-5.98
2022-12-17T08:05:02.197Z,-6.17
2022-12-17T08:07:47.304Z,-5.93
2022-12-17T08:10:32.467Z,-5.81
2022-12-17T08:13:18.680Z,-5.92
2022-12-17T08:16:04.465Z,-5.92
2022-12-17T08:18:51.406Z,-5.90
2022-12-17T08:21:51.893Z,-6.01
2022-12-17T08:24:37.881Z,-5.84
2022-12-17T08:27:23.556Z,-6.03
2022-12-17T08:30:09.049Z,-6.19
2022-12-17T08:32:54.274Z,-6.30
2022-12-17T08:35:43.827Z,-6.06
2022-12-17T08:38:29.287Z,-6.22
2022-12-17T08:41:14.787Z,-6.00
2022-12-17T08:44:00.105Z,-5.58
2022-12-17T08:46:45.538Z,-5.39
2022-12-17T08:49:45.201Z,-5.34
2022-12-17T08:52:32.041Z,-4.76
2022-12-17T08:55:17.245Z,-4.54
2022-12-17T08:58:22.538Z,-4.64
2022-12-17T09:01:08.092Z,-4.63
2022-12-17T09:03:53.564Z,-4.24
2022-12-17T09:06:39.419Z,-4.60
2022-12-17T09:09:26.340Z,-4.45
2022-12-17T09:12:11.523Z,-3.90
2022-12-17T09:14:56.893Z,-3.88
2022-12-17T09:17:42.247Z,-4.29
2022-12-17T09:20:29.639Z,-3.72
2022-12-17T09:23:14.955Z,-3.22
2022-12-17T09:26:01.502Z,-3.65
2022-12-17T09:28:46.790Z,-3.86
2022-12-17T09:31:36.975Z,-3.84
2022-12-17T09:34:28.250Z,-3.76
2022-12-17T09:37:24.842Z,-3.86
2022-12-17T09:40:10.403Z,-3.80
2022-12-17T09:43:00.787Z,-3.72
2022-12-17T09:45:50.986Z,-3.22
2022-12-17T09:48:41.122Z,-3.07
2022-12-17T09:51:35.210Z,-2.34
2022-12-17T09:54:20.966Z,-3.39
2022-12-17T09:57:07.669Z,-4.88
2022-12-17T10:00:03.420Z,-3.79
2022-12-17T10:02:58.548Z,-2.62
2022-12-17T10:05:45.456Z,-2.65
2022-12-17T10:08:32.874Z,-2.94
2022-12-17T10:11:34.198Z,-3.12
2022-12-17T10:14:20.665Z,-4.08
2022-12-17T10:17:11.918Z,-3.61
2022-12-17T10:19:59.812Z,-3.50
2022-12-17T10:22:45.213Z,-3.20
2022-12-17T10:25:34.380Z,-2.64
2022-12-17T10:28:20.259Z,-3.04
2022-12-17T10:31:05.994Z,-2.62
2022-12-17T10:33:55.770Z,-2.10
2022-12-17T10:36:42.558Z,-1.71
2022-12-17T10:39:35.038Z,-2.41
2022-12-17T10:42:20.708Z,-3.62
2022-12-17T10:45:06.198Z,-3.90
2022-12-17T10:47:52.356Z,-2.98
2022-12-17T10:50:40.951Z,-1.75
2022-12-17T10:53:36.455Z,-1.71
2022-12-17T10:56:41.599Z,-1.22
2022-12-17T10:59:30.656Z,-1.28
2022-12-17T11:02:21.757Z,-3.07
2022-12-17T11:05:17.375Z,-3.67
2022-12-17T11:08:04.526Z,-4.41
2022-12-17T11:10:51.078Z,-4.48
2022-12-17T11:13:41.981Z,-4.17
2022-12-17T11:16:31.457Z,-4.72
2022-12-17T11:19:20.605Z,-3.70
2022-12-17T11:22:10.127Z,-3.33
2022-12-17T11:24:59.619Z,-2.08
2022-12-17T11:30:56.732Z,-1.03
2022-12-17T11:33:48.131Z,-0.80
2022-12-17T11:36:39.262Z,-0.43
2022-12-17T11:39:28.709Z,-0.09
2022-12-17T11:42:24.462Z,-0.43
2022-12-17T11:45:16.007Z,-1.20
2022-12-17T11:48:05.193Z,-0.57
2022-12-17T11:50:54.253Z,-0.27
2022-12-17T11:54:00.638Z,-0.17
2022-12-17T11:56:49.467Z,-0.14
2022-12-17T11:59:46.772Z,-1.26
2022-12-17T12:02:48.001Z,-0.84
2022-12-17T12:05:38.703Z,-1.57
2022-12-17T12:08:28.093Z,-2.91
2022-12-17T12:11:16.863Z,-3.59
2022-12-17T12:14:06.584Z,-3.70
2022-12-17T12:16:57.790Z,-3.98
2022-12-17T12:19:45.685Z,-3.50
2022-12-17T12:22:35.822Z,-2.76
2022-12-17T12:25:27.782Z,-3.15
2022-12-17T12:28:19.093Z,-3.04
2022-12-17T12:31:10.280Z,-4.42
2022-12-17T12:34:01.373Z,-3.93
2022-12-17T12:36:47.201Z,-3.70
2022-12-17T12:39:37.785Z,-2.63
2022-12-17T12:42:28.455Z,-2.73
2022-12-17T12:45:18.330Z,-3.57
2022-12-17T12:48:07.732Z,-2.78
2022-12-17T12:51:00.293Z,-2.42
2022-12-17T12:53:45.702Z,-1.64
2022-12-17T12:56:45.310Z,-0.76
2022-12-17T12:59:31.379Z,-0.62
2022-12-17T13:02:17.052Z,-0.07
2022-12-17T13:05:02.905Z,0.55
2022-12-17T13:07:41.458Z,0.72
2022-12-17T13:10:26.691Z,0.05
2022-12-17T13:12:57.559Z,0.30
2022-12-17T13:15:35.946Z,0.56
2022-12-17T13:21:00.175Z,0.68
2022-12-17T13:23:31.456Z,0.31
2022-12-17T13:26:14.900Z,0.57
2022-12-17T13:28:47.617Z,0.65
2022-12-17T13:31:28.712Z,-1.49
2022-12-17T13:34:05.118Z,-2.01
2022-12-17T13:36:53.634Z,-2.37
2022-12-17T13:39:45.864Z,-3.63
2022-12-17T13:42:21.892Z,-4.41
2022-12-17T13:44:50.078Z,-3.48
2022-12-17T13:47:25.525Z,-2.39
2022-12-17T13:50:31.748Z,-3.53
2022-12-17T13:52:42.869Z,-3.76
2022-12-17T13:58:26.736Z,-3.49
2022-12-17T14:01:06.305Z,-2.93
2022-12-17T14:04:04.420Z,-3.01
2022-12-17T14:06:23.698Z,-3.21
2022-12-17T14:08:52.851Z,-3.25
2022-12-17T14:11:37.933Z,-3.11
2022-12-17T14:14:13.161Z,-3.00
2022-12-17T14:16:46.078Z,-3.41
2022-12-17T14:19:18.221Z,-3.31
2022-12-17T14:21:47.668Z,-3.72
2022-12-17T14:24:19.007Z,-3.84
2022-12-17T14:26:51.978Z,-4.10
2022-12-17T14:29:34.086Z,-3.76
2022-12-17T14:32:06.036Z,-3.57
2022-12-17T14:34:42.056Z,-3.28
2022-12-17T14:37:17.723Z,-3.49
2022-12-17T14:39:47.247Z,-4.14
2022-12-17T14:42:29.228Z,-4.14
2022-12-17T14:48:07.054Z,-3.37
2022-12-17T14:50:35.977Z,-3.59
2022-12-17T14:53:04.813Z,-3.59
2022-12-17T14:55:37.601Z,-3.69
2022-12-17T14:58:19.092Z,-3.56
2022-12-17T15:00:49.136Z,-4.14
2022-12-17T15:03:22.013Z,-4.21
2022-12-17T15:05:52.943Z,-3.74
2022-12-17T15:08:21.390Z,-4.60
2022-12-17T15:10:49.768Z,-4.39
2022-12-17T15:13:18.069Z,-4.78
2022-12-17T15:15:46.131Z,-4.28
2022-12-17T15:18:14.785Z,-3.93
2022-12-17T15:20:44.830Z,-4.43
2022-12-17T15:23:16.974Z,-4.93
2022-12-17T15:25:47.029Z,-4.69
2022-12-17T15:28:15.668Z,-4.43
2022-12-17T15:30:43.631Z,-4.43
2022-12-17T15:33:11.487Z,-3.92
2022-12-17T15:35:39.491Z,-4.52
2022-12-17T15:38:09.193Z,-4.97
2022-12-17T15:40:37.797Z,-5.12
2022-12-17T15:43:13.738Z,-4.76
2022-12-17T15:45:42.478Z,-4.85
2022-12-17T15:48:10.161Z,-4.87
2022-12-17T15:50:38.254Z,-4.92
2022-12-17T15:53:06.336Z,-4.92
2022-12-17T15:55:35.577Z,-4.47
2022-12-17T15:58:03.609Z,-4.00
2022-12-17T16:00:31.296Z,-3.99
2022-12-17T16:02:59.355Z,-4.50
2022-12-17T16:05:27.081Z,-4.18
2022-12-17T16:07:59.143Z,-4.60
2022-12-17T16:10:27.215Z,-4.15
2022-12-17T16:12:56.631Z,-3.94
2022-12-17T16:15:24.815Z,-3.69
2022-12-17T16:17:52.982Z,-3.56
2022-12-17T16:20:20.887Z,-3.56
2022-12-17T16:22:48.941Z,-3.86
2022-12-17T16:25:17.132Z,-3.63
2022-12-17T16:27:44.900Z,-3.60
2022-12-17T16:30:18.089Z,-3.42
2022-12-17T16:32:45.866Z,-3.36
2022-12-17T16:35:14.182Z,-3.27
2022-12-17T16:37:43.545Z,-3.38
2022-12-17T16:40:13.022Z,-3.24
2022-12-17T16:42:42.045Z,-3.34
2022-12-17T16:45:10.984Z,-3.54
2022-12-17T16:47:41.025Z,-3.48
2022-12-17T16:50:09.070Z,-3.27
2022-12-17T16:52:36.911Z,-3.56
2022-12-17T16:55:05.055Z,-4.11
2022-12-17T16:57:35.659Z,-4.77
2022-12-17T17:00:05.790Z,-4.42
2022-12-17T17:02:33.796Z,-3.85
2022-12-17T17:05:06.449Z,-4.09
2022-12-17T17:07:34.194Z,-3.91
2022-12-17T17:10:07.869Z,-3.66
2022-12-17T17:12:35.982Z,-3.52
2022-12-17T17:15:04.508Z,-3.57
2022-12-17T17:17:55.599Z,-3.74
2022-12-17T17:20:22.197Z,-4.30
2022-12-17T17:22:50.222Z,-5.15
2022-12-17T17:25:18.230Z,-5.01
2022-12-17T17:27:46.211Z,-4.57
2022-12-17T17:30:14.796Z,-5.13
2022-12-17T17:32:43.110Z,-5.52
2022-12-17T17:35:11.669Z,-5.31
2022-12-17T17:37:41.224Z,-5.54
2022-12-17T17:40:10.058Z,-5.31
2022-12-17T17:42:37.828Z,-5.51
2022-12-17T17:45:06.477Z,-5.25
2022-12-17T17:47:34.456Z,-4.66
2022-12-17T17:50:02.189Z,-4.50
2022-12-17T17:52:30.011Z,-4.41
2022-12-17T18:04:07.586Z,-5.32
2022-12-17T18:13:19.481Z,-4.74
2022-12-17T18:28:13.274Z,-5.84
2022-12-17T18:34:19.508Z,-5.77
2022-12-17T18:46:49.640Z,-5.27
2022-12-17T18:58:14.320Z,-4.96
2022-12-17T19:42:37.388Z,-5.37
2022-12-17T19:53:20.914Z,-5.25
2022-12-17T20:25:19.678Z,-5.97
2022-12-17T20:44:11.978Z,-5.78
2022-12-17T20:47:06.504Z,-6.54
2022-12-17T20:49:34.549Z,-6.19
2022-12-17T20:52:02.257Z,-5.75
2022-12-17T20:54:58.442Z,-5.89
2022-12-17T20:57:49.284Z,-6.22
2022-12-17T21:17:31.340Z,-5.76
2022-12-17T21:54:18.965Z,-6.19
2022-12-17T21:56:48.043Z,-6.50
2022-12-17T22:02:03.513Z,-6.66
2022-12-17T22:14:07.257Z,-6.79
2022-12-17T22:16:51.972Z,-6.64
2022-12-17T22:31:24.559Z,-7.24
2022-12-17T22:33:53.635Z,-7.16
2022-12-17T22:44:48.773Z,-7.02
2022-12-17T22:48:24.152Z,-7.34
2022-12-17T22:53:42.564Z,-6.82
2022-12-17T22:59:28.257Z,-7.09
2022-12-17T23:05:04.843Z,-7.44
2022-12-17T23:07:43.097Z,-7.39
2022-12-17T23:10:15.044Z,-7.44
2022-12-17T23:12:54.763Z,-7.78
2022-12-17T23:15:25.637Z,-7.73
2022-12-17T23:18:23.052Z,-7.70
2022-12-17T23:20:52.144Z,-7.77
2022-12-17T23:26:22.798Z,-8.00
2022-12-17T23:29:01.877Z,-8.20
2022-12-17T23:31:48.620Z,-8.15
2022-12-17T23:34:30.381Z,-8.12
2022-12-17T23:39:44.081Z,-8.26
2022-12-17T23:45:16.353Z,-8.67
2022-12-17T23:48:14.063Z,-8.87
2022-12-17T23:51:11.486Z,-8.95
2022-12-17T23:53:51.344Z,-9.04
